Time,TemperatureF,DewpointF,PressureIn,WindDirection,WindDirectionDegrees,WindSpeedMPH,WindSpeedGustMPH,Humidity,HourlyPrecipIn,Conditions,Clouds,dailyrainin,SoftwareType,DateUTC
2013-04-05 00:01:00,47.3,37.7,27.29,NE,56,3.1,4.0,69,0.00,,SKC,0.00,VWS V14.01,2013-04-05 07:01:00,
2013-04-05 00:07:00,47.3,37.7,27.29,NNE,27,2.2,3.6,69,0.00,,SKC,0.00,VWS V14.01,2013-04-05 07:07:00,
2013-04-05 00:12:00,47.3,38.0,27.29,ESE,111,0.0,3.6,70,0.00,,SKC,0.00,VWS V14.01,2013-04-05 07:12:00,
2013-04-05 06:39:00,41.9,37.4,27.32,NNE,16,2.7,5.8,84,0.00,,SKC,0.00,VWS V14.01,2013-04-05 13:39:00,
2013-04-05 06:44:00,41.9,37.1,27.32,NE,41,0.0,4.0,83,0.00,,SKC,0.00,VWS V14.01,2013-04-05 13:44:00,
2013-04-05 06:49:00,42.1,37.3,27.29,NNW,341,2.7,5.4,83,0.00,,SKC,0.00,VWS V14.01,2013-04-05 13:49:00,
2013-04-05 06:55:00,42.4,37.3,27.29,West,280,3.6,4.0,82,0.00,,SKC,0.00,VWS V14.01,2013-04-05 13:55:00,
2013-04-05 07:00:00,43.3,37.9,27.29,ENE,73,4.9,4.9,81,0.00,,SKC,0.00,VWS V14.01,2013-04-05 14:00:00,
2013-04-05 07:05:00,45.7,37.9,27.32,East,86,3.6,4.9,74,0.00,,SKC,0.00,VWS V14.01,2013-04-05 14:05:00,
2013-04-05 07:10:00,47.8,36.3,27.32,South,190,0.0,5.4,64,0.00,,SKC,0.00,VWS V14.01,2013-04-05 14:10:00,
2013-04-05 07:15:00,48.0,30.3,27.32,North,350,0.0,4.0,50,0.00,,SKC,0.00,VWS V14.01,2013-04-05 14:15:00,
2013-04-05 07:20:00,46.8,28.6,27.32,WNW,287,0.0,0.0,49,0.00,,SKC,0.00,VWS V14.01,2013-04-05 14:20:00,
2013-04-05 07:25:00,46.0,29.4,27.32,NW,318,0.0,2.7,52,0.00,,SKC,0.00,VWS V14.01,2013-04-05 14:25:00,
2013-04-05 07:30:00,45.0,28.4,27.32,WNW,286,3.6,4.0,52,0.00,,SKC,0.00,VWS V14.01,2013-04-05 14:30:00,
2013-04-05 07:35:00,44.8,29.2,27.32,NNW,330,0.0,0.0,54,0.00,,SKC,0.00,VWS V14.01,2013-04-05 14:35:00,
2013-04-05 07:40:00,45.0,29.8,27.32,West,274,2.2,2.2,55,0.00,,SKC,0.00,VWS V14.01,2013-04-05 14:40:00,
2013-04-05 07:45:00,45.0,29.3,27.29,WNW,296,0.0,4.0,54,0.00,,SKC,0.00,VWS V14.01,2013-04-05 14:45:00,
2013-04-05 07:50:00,45.1,29.5,27.29,SSE,154,0.0,4.0,54,0.00,,SKC,0.00,VWS V14.01,2013-04-05 14:50:00,
2013-04-05 07:55:00,45.1,29.5,27.29,WNW,288,4.9,4.9,54,0.00,,SKC,0.00,VWS V14.01,2013-04-05 14:55:00,
2013-04-05 08:01:00,44.8,29.6,27.32,WNW,283,0.0,6.3,55,0.00,,SKC,0.00,VWS V14.01,2013-04-05 15:01:00,
2013-04-05 08:06:00,44.8,30.5,27.32,NE,36,0.0,0.0,57,0.00,,SKC,0.00,VWS V14.01,2013-04-05 15:06:00,
2013-04-05 08:11:00,44.6,31.2,27.32,NNE,12,0.0,3.6,59,0.00,,SKC,0.00,VWS V14.01,2013-04-05 15:11:00,
2013-04-05 08:16:00,44.8,31.8,27.32,South,190,3.1,4.0,60,0.00,,SKC,0.00,VWS V14.01,2013-04-05 15:16:00,
2013-04-05 08:21:00,44.8,32.2,27.32,SSW,205,0.0,4.0,61,0.00,,SKC,0.00,VWS V14.01,2013-04-05 15:21:00,
2013-04-05 08:26:00,45.0,32.3,27.32,North,357,0.0,2.7,61,0.00,,SKC,0.00,VWS V14.01,2013-04-05 15:26:00,
2013-04-05 08:32:00,45.1,32.9,27.32,ESE,111,2.2,3.1,62,0.00,,SKC,0.00,VWS V14.01,2013-04-05 15:32:00,
2013-04-05 08:37:00,45.3,33.1,27.32,NW,307,4.0,4.0,62,0.00,,SKC,0.00,VWS V14.01,2013-04-05 15:37:00,
2013-04-05 08:42:00,45.5,32.4,27.32,SSW,200,3.6,3.6,60,0.00,,SKC,0.00,VWS V14.01,2013-04-05 15:42:00,
2013-04-05 08:47:00,45.9,32.4,27.32,East,90,2.2,4.0,59,0.00,,SKC,0.00,VWS V14.01,2013-04-05 15:47:00,
2013-04-05 08:52:00,45.9,32.8,27.32,West,280,2.2,8.3,60,0.00,,SKC,0.00,VWS V14.01,2013-04-05 15:52:00,
2013-04-05 08:57:00,45.7,32.2,27.32,SSW,203,4.0,4.0,59,0.00,,SKC,0.00,VWS V14.01,2013-04-05 15:57:00,
2013-04-05 09:02:00,45.5,31.6,27.32,ENE,76,0.0,4.9,58,0.00,,SKC,0.00,VWS V14.01,2013-04-05 16:02:00,
2013-04-05 09:07:00,45.5,32.0,27.32,ESE,114,0.0,5.8,59,0.00,,SKC,0.00,VWS V14.01,2013-04-05 16:07:00,
2013-04-05 09:12:00,45.7,32.6,27.32,North,0,2.7,6.3,60,0.00,,SKC,0.00,VWS V14.01,2013-04-05 16:12:00,
2013-04-05 09:18:00,45.5,31.6,27.32,NNE,32,5.4,8.1,58,0.00,,SKC,0.00,VWS V14.01,2013-04-05 16:18:00,
2013-04-05 09:23:00,45.9,32.4,27.32,SE,131,0.0,5.8,59,0.00,,SKC,0.00,VWS V14.01,2013-04-05 16:23:00,
2013-04-05 09:28:00,46.0,32.1,27.32,NW,319,8.3,8.3,58,0.00,,SKC,0.00,VWS V14.01,2013-04-05 16:28:00,
2013-04-05 09:33:00,46.0,31.7,27.32,SSE,159,3.1,7.2,57,0.00,,SKC,0.00,VWS V14.01,2013-04-05 16:33:00,
2013-04-05 09:38:00,46.2,31.4,27.32,NNE,20,3.6,8.3,56,0.00,,SKC,0.00,VWS V14.01,2013-04-05 16:38:00,
2013-04-05 09:43:00,46.4,31.6,27.32,NNW,341,2.2,6.3,56,0.00,,SKC,0.00,VWS V14.01,2013-04-05 16:43:00,
2013-04-05 09:49:00,46.8,31.5,27.32,West,267,3.1,4.9,55,0.00,,SKC,0.00,VWS V14.01,2013-04-05 16:49:00,
2013-04-05 09:54:00,46.9,31.2,27.32,NW,324,2.7,5.4,54,0.00,,SKC,0.00,VWS V14.01,2013-04-05 16:54:00,
2013-04-05 09:59:00,46.9,30.7,27.32,ESE,115,0.0,8.7,53,0.00,,SKC,0.00,VWS V14.01,2013-04-05 16:59:00,
2013-04-05 10:04:00,47.1,30.4,27.32,NE,56,2.7,8.1,52,0.00,,SKC,0.00,VWS V14.01,2013-04-05 17:04:00,
2013-04-05 10:09:00,47.1,29.9,27.32,SSW,203,3.6,8.3,51,0.00,,SKC,0.00,VWS V14.01,2013-04-05 17:09:00,
2013-04-05 10:14:00,47.3,29.6,27.32,SSE,160,3.1,6.3,50,0.00,,SKC,0.00,VWS V14.01,2013-04-05 17:14:00,
2013-04-05 10:20:00,47.8,30.6,27.32,SW,235,5.8,5.8,51,0.00,,SKC,0.00,VWS V14.01,2013-04-05 17:20:00,
2013-04-05 10:25:00,48.0,30.3,27.32,SW,218,2.7,5.8,50,0.00,,SKC,0.00,VWS V14.01,2013-04-05 17:25:00,
2013-04-05 10:30:00,48.2,30.0,27.32,SE,136,3.1,5.8,49,0.00,,SKC,0.00,VWS V14.01,2013-04-05 17:30:00,
2013-04-05 10:35:00,48.4,29.6,27.32,SSW,203,4.9,5.4,48,0.00,,SKC,0.00,VWS V14.01,2013-04-05 17:35:00,
2013-04-05 10:40:00,48.6,29.3,27.32,WNW,286,2.7,2.7,47,0.00,,SKC,0.00,VWS V14.01,2013-04-05 17:40:00,
2013-04-05 10:45:00,48.7,29.4,27.32,SSE,150,3.1,3.6,47,0.00,,SKC,0.00,VWS V14.01,2013-04-05 17:45:00,
2013-04-05 10:50:00,48.9,29.6,27.32,SW,225,2.7,4.9,47,0.00,,SKC,0.00,VWS V14.01,2013-04-05 17:50:00,
2013-04-05 10:55:00,49.1,29.8,27.32,WNW,300,4.9,4.9,47,0.00,,SKC,0.00,VWS V14.01,2013-04-05 17:55:00,
2013-04-05 11:00:00,49.3,29.4,27.32,East,101,5.4,5.4,46,0.00,,SKC,0.00,VWS V14.01,2013-04-05 18:00:00,
2013-04-05 11:05:00,49.5,29.0,27.32,NNE,18,3.1,3.1,45,0.00,,SKC,0.00,VWS V14.01,2013-04-05 18:05:00,
2013-04-05 11:10:00,49.5,28.5,27.32,NW,305,4.0,5.8,44,0.04,,SKC,0.04,VWS V14.01,2013-04-05 18:10:00,
2013-04-05 11:15:00,49.3,28.9,27.32,SE,133,5.4,6.3,45,0.04,,SKC,0.04,VWS V14.01,2013-04-05 18:15:00,
2013-04-05 11:21:00,49.6,28.6,27.32,ENE,67,3.6,4.0,44,0.04,,SKC,0.04,VWS V14.01,2013-04-05 18:21:00,
2013-04-05 11:26:00,49.8,29.4,27.32,SE,129,5.8,7.2,45,0.04,,SKC,0.04,VWS V14.01,2013-04-05 18:26:00,
2013-04-05 11:31:00,50.2,28.6,27.32,South,173,5.4,8.3,43,0.04,,SKC,0.04,VWS V14.01,2013-04-05 18:31:00,
2013-04-05 11:36:00,50.2,29.1,27.32,NE,51,2.2,9.6,44,0.04,,SKC,0.04,VWS V14.01,2013-04-05 18:36:00,
2013-04-05 11:42:00,50.5,28.3,27.32,North,11,3.1,9.2,42,0.04,,SKC,0.04,VWS V14.01,2013-04-05 18:42:00,
2013-04-05 11:47:00,50.5,28.3,27.32,East,92,4.9,6.7,42,0.04,,SKC,0.04,VWS V14.01,2013-04-05 18:47:00,
2013-04-05 11:52:00,51.1,27.6,27.32,NNE,32,4.0,8.3,40,0.04,,SKC,0.04,VWS V14.01,2013-04-05 18:52:00,
2013-04-05 11:57:00,51.1,27.6,27.32,NW,324,3.1,8.7,40,0.04,,SKC,0.04,VWS V14.01,2013-04-05 18:57:00,
2013-04-05 12:02:00,51.3,27.8,27.32,East,83,2.7,10.5,40,0.04,,SKC,0.04,VWS V14.01,2013-04-05 19:02:00,
2013-04-05 12:07:00,51.3,27.8,27.32,North,357,3.6,6.3,40,0.04,,SKC,0.04,VWS V14.01,2013-04-05 19:07:00,
2013-04-05 12:13:00,51.8,28.3,27.32,WSW,246,4.9,7.2,40,0.00,,SKC,0.04,VWS V14.01,2013-04-05 19:13:00,
2013-04-05 12:18:00,51.8,28.3,27.32,West,278,3.1,7.6,40,0.00,,SKC,0.04,VWS V14.01,2013-04-05 19:18:00,
2013-04-05 12:23:00,52.2,28.0,27.32,South,177,4.9,7.6,39,0.00,,SKC,0.04,VWS V14.01,2013-04-05 19:23:00,
2013-04-05 12:28:00,52.5,28.9,27.32,North,357,3.6,8.1,40,0.00,,SKC,0.04,VWS V14.01,2013-04-05 19:28:00,
2013-04-05 12:33:00,53.1,28.1,27.32,NNE,19,3.6,9.6,38,0.00,,SKC,0.04,VWS V14.01,2013-04-05 19:33:00,
2013-04-05 12:38:00,53.2,28.3,27.32,East,85,0.0,7.6,38,0.00,,SKC,0.04,VWS V14.01,2013-04-05 19:38:00,
2013-04-05 12:44:00,53.6,28.6,27.32,South,185,2.7,5.8,38,0.00,,SKC,0.04,VWS V14.01,2013-04-05 19:44:00,
2013-04-05 12:49:00,54.5,28.8,27.32,SSW,203,4.0,6.3,37,0.00,,SKC,0.04,VWS V14.01,2013-04-05 19:49:00,
2013-04-05 12:54:00,54.5,28.8,27.32,ESE,119,5.8,6.3,37,0.00,,SKC,0.04,VWS V14.01,2013-04-05 19:54:00,
2013-04-05 12:59:00,55.8,29.2,27.32,North,3,4.5,6.3,36,0.00,,SKC,0.04,VWS V14.01,2013-04-05 19:59:00,
2013-04-05 13:04:00,57.9,30.5,27.32,SSE,159,2.2,7.6,35,0.00,,SKC,0.04,VWS V14.01,2013-04-05 20:04:00,
2013-04-05 13:09:00,59.0,30.0,27.32,SSW,207,6.3,9.6,33,0.00,,SKC,0.04,VWS V14.01,2013-04-05 20:09:00,
2013-04-05 13:15:00,59.5,30.4,27.32,WNW,297,6.3,8.7,33,0.00,,SKC,0.04,VWS V14.01,2013-04-05 20:15:00,
2013-04-05 13:20:00,60.1,28.6,27.32,SSW,198,6.3,6.3,30,0.00,,SKC,0.04,VWS V14.01,2013-04-05 20:20:00,
2013-04-05 13:25:00,59.5,27.3,27.32,NW,305,4.0,8.7,29,0.00,,SKC,0.04,VWS V14.01,2013-04-05 20:25:00,
2013-04-05 13:30:00,60.1,28.6,27.32,NNE,33,2.7,9.2,30,0.00,,SKC,0.04,VWS V14.01,2013-04-05 20:30:00,
2013-04-05 13:35:00,60.3,27.9,27.32,East,100,3.6,10.5,29,0.00,,SKC,0.04,VWS V14.01,2013-04-05 20:35:00,
2013-04-05 13:40:00,58.6,25.6,27.32,WNW,293,5.4,5.4,28,0.00,,SKC,0.04,VWS V14.01,2013-04-05 20:40:00,
2013-04-05 13:45:00,58.8,24.9,27.32,WNW,300,5.8,5.8,27,0.00,,SKC,0.04,VWS V14.01,2013-04-05 20:45:00,
2013-04-05 13:50:00,59.4,26.3,27.32,SW,217,3.1,3.1,28,0.00,,SKC,0.04,VWS V14.01,2013-04-05 20:50:00,
2013-04-05 13:55:00,59.0,25.1,27.32,SSE,159,2.7,4.5,27,0.00,,SKC,0.04,VWS V14.01,2013-04-05 20:55:00,
2013-04-05 14:00:00,58.1,25.2,27.32,SW,217,5.8,5.8,28,0.00,,SKC,0.04,VWS V14.01,2013-04-05 21:00:00,
2013-04-05 14:05:00,58.3,24.5,27.32,North,353,3.1,5.4,27,0.00,,SKC,0.04,VWS V14.01,2013-04-05 21:05:00,
2013-04-05 14:10:00,57.9,24.2,27.32,NNW,340,0.0,3.1,27,0.00,,SKC,0.04,VWS V14.01,2013-04-05 21:10:00,
2013-04-05 14:15:00,58.1,23.4,27.34,NE,45,2.2,4.0,26,0.00,,SKC,0.04,VWS V14.01,2013-04-05 21:15:00,
2013-04-05 14:20:00,58.1,24.3,27.34,SSW,193,6.3,6.3,27,0.00,,SKC,0.04,VWS V14.01,2013-04-05 21:20:00,
2013-04-05 14:26:00,59.4,25.4,27.34,ENE,58,3.1,3.1,27,0.00,,SKC,0.04,VWS V14.01,2013-04-05 21:26:00,
2013-04-05 14:31:00,59.5,24.6,27.34,NW,317,3.1,7.6,26,0.00,,SKC,0.04,VWS V14.01,2013-04-05 21:31:00,
2013-04-05 14:36:00,59.4,24.5,27.34,SE,143,3.1,3.6,26,0.00,,SKC,0.04,VWS V14.01,2013-04-05 21:36:00,
2013-04-05 14:41:00,59.0,24.2,27.34,WSW,238,2.2,8.1,26,0.00,,SKC,0.04,VWS V14.01,2013-04-05 21:41:00,
2013-04-05 14:47:00,59.2,24.3,27.34,East,88,2.7,4.9,26,0.00,,SKC,0.04,VWS V14.01,2013-04-05 21:47:00,
2013-04-05 14:52:00,59.7,24.8,27.34,SE,142,0.0,5.4,26,0.00,,SKC,0.04,VWS V14.01,2013-04-05 21:52:00,
2013-04-05 14:57:00,59.5,24.6,27.34,SSW,207,3.6,5.4,26,0.00,,SKC,0.04,VWS V14.01,2013-04-05 21:57:00,
2013-04-05 15:03:00,59.4,24.5,27.34,NNW,338,0.0,8.3,26,0.00,,SKC,0.04,VWS V14.01,2013-04-05 22:03:00,
2013-04-05 15:08:00,59.0,23.2,27.34,NW,321,2.7,5.4,25,0.00,,SKC,0.04,VWS V14.01,2013-04-05 22:08:00,
2013-04-05 15:13:00,59.0,24.2,27.34,ENE,76,3.6,4.0,26,0.00,,SKC,0.04,VWS V14.01,2013-04-05 22:13:00,
2013-04-05 15:18:00,58.8,24.0,27.34,WSW,237,4.9,6.3,26,0.00,,SKC,0.04,VWS V14.01,2013-04-05 22:18:00,
2013-04-05 15:23:00,58.6,23.9,27.34,SSE,162,3.1,5.8,26,0.00,,SKC,0.04,VWS V14.01,2013-04-05 22:23:00,
2013-04-05 15:28:00,58.6,23.9,27.34,ESE,105,2.2,5.8,26,0.00,,SKC,0.04,VWS V14.01,2013-04-05 22:28:00,
2013-04-05 15:33:00,59.0,24.2,27.34,NNW,332,4.0,4.0,26,0.00,,SKC,0.04,VWS V14.01,2013-04-05 22:33:00,
2013-04-05 15:38:00,58.8,24.0,27.34,NW,324,5.4,5.8,26,0.00,,SKC,0.04,VWS V14.01,2013-04-05 22:38:00,
2013-04-05 15:43:00,59.2,23.4,27.34,South,169,2.2,10.5,25,0.00,,SKC,0.04,VWS V14.01,2013-04-05 22:43:00,
2013-04-05 15:48:00,60.1,24.2,27.34,SE,140,5.8,6.3,25,0.00,,SKC,0.04,VWS V14.01,2013-04-05 22:48:00,
2013-04-05 15:53:00,59.9,24.0,27.34,WNW,288,2.2,7.2,25,0.00,,SKC,0.04,VWS V14.01,2013-04-05 22:53:00,
2013-04-05 15:58:00,59.0,23.2,27.34,NW,317,3.1,7.2,25,0.00,,SKC,0.04,VWS V14.01,2013-04-05 22:58:00,
2013-04-05 16:03:00,58.8,24.0,27.34,ENE,60,0.0,2.7,26,0.00,,SKC,0.04,VWS V14.01,2013-04-05 23:03:00,
2013-04-05 16:09:00,58.8,24.0,27.34,NW,308,5.4,8.7,26,0.00,,SKC,0.04,VWS V14.01,2013-04-05 23:09:00,
2013-04-05 16:14:00,58.8,24.0,27.34,NE,35,0.0,5.8,26,0.00,,SKC,0.04,VWS V14.01,2013-04-05 23:14:00,
2013-04-05 16:19:00,58.5,22.8,27.34,East,82,0.0,8.3,25,0.00,,SKC,0.04,VWS V14.01,2013-04-05 23:19:00,
2013-04-05 16:24:00,59.0,23.2,27.34,NE,41,0.0,5.4,25,0.00,,SKC,0.04,VWS V14.01,2013-04-05 23:24:00,
2013-04-05 16:29:00,59.2,23.4,27.34,NW,318,2.7,8.1,25,0.00,,SKC,0.04,VWS V14.01,2013-04-05 23:29:00,
2013-04-05 16:34:00,59.0,23.2,27.34,SSW,192,2.2,5.8,25,0.00,,SKC,0.04,VWS V14.01,2013-04-05 23:34:00,
2013-04-05 16:39:00,58.6,22.9,27.34,South,191,4.0,6.3,25,0.00,,SKC,0.04,VWS V14.01,2013-04-05 23:39:00,
2013-04-05 16:44:00,58.1,23.4,27.34,East,91,0.0,4.0,26,0.00,,SKC,0.04,VWS V14.01,2013-04-05 23:44:00,
2013-04-05 16:49:00,57.6,22.0,27.34,WSW,249,2.7,5.8,25,0.00,,SKC,0.04,VWS V14.01,2013-04-05 23:49:00,
2013-04-05 16:54:00,56.7,22.2,27.34,South,190,4.9,6.3,26,0.00,,SKC,0.04,VWS V14.01,2013-04-05 23:54:00,
2013-04-05 17:00:00,55.0,22.5,27.34,NNW,335,0.0,11.0,28,0.00,,SKC,0.04,VWS V14.01,2013-04-06 00:00:00,
2013-04-05 17:05:00,53.1,23.2,27.34,NW,311,0.0,5.8,31,0.00,,SKC,0.04,VWS V14.01,2013-04-06 00:05:00,
2013-04-05 17:10:00,53.1,25.5,27.34,SE,131,0.0,4.5,34,0.00,,SKC,0.04,VWS V14.01,2013-04-06 00:10:00,
2013-04-05 17:15:00,53.6,28.0,27.34,SE,137,0.0,4.0,37,0.00,,SKC,0.04,VWS V14.01,2013-04-06 00:15:00,
2013-04-05 17:20:00,53.4,27.8,27.34,ESE,102,3.1,3.1,37,0.00,,SKC,0.04,VWS V14.01,2013-04-06 00:20:00,
2013-04-05 17:25:00,53.2,27.0,27.34,East,79,0.0,3.6,36,0.00,,SKC,0.04,VWS V14.01,2013-04-06 00:25:00,
2013-04-05 17:30:00,53.1,26.8,27.34,NE,52,0.0,0.0,36,0.00,,SKC,0.04,VWS V14.01,2013-04-06 00:30:00,
2013-04-05 17:35:00,52.3,23.4,27.34,WSW,241,17.0,17.0,32,0.00,,SKC,0.04,VWS V14.01,2013-04-06 00:35:00,
2013-04-05 17:40:00,49.6,25.1,27.34,SW,234,2.7,3.1,38,0.00,,SKC,0.04,VWS V14.01,2013-04-06 00:40:00,
2013-04-05 17:45:00,50.5,28.3,27.34,SSE,167,0.0,0.0,42,0.00,,SKC,0.04,VWS V14.01,2013-04-06 00:45:00,
2013-04-05 17:50:00,51.3,27.2,27.34,South,175,2.2,2.2,39,0.00,,SKC,0.04,VWS V14.01,2013-04-06 00:50:00,
2013-04-05 17:55:00,51.4,26.7,27.34,SE,140,0.0,0.0,38,0.00,,SKC,0.04,VWS V14.01,2013-04-06 00:55:00,
2013-04-05 18:00:00,51.3,28.4,27.34,NE,39,0.0,0.0,41,0.00,,SKC,0.04,VWS V14.01,2013-04-06 01:00:00,
2013-04-05 18:05:00,50.5,28.3,27.34,NE,39,0.0,0.0,42,0.00,,SKC,0.04,VWS V14.01,2013-04-06 01:05:00,
2013-04-05 18:10:00,50.9,29.8,27.34,NE,42,0.0,0.0,44,0.00,,SKC,0.04,VWS V14.01,2013-04-06 01:10:00,
2013-04-05 18:15:00,52.0,30.2,27.34,NE,37,0.0,0.0,43,0.00,,SKC,0.04,VWS V14.01,2013-04-06 01:15:00,
2013-04-05 18:20:00,52.0,26.5,27.34,West,273,3.6,3.6,37,0.00,,SKC,0.04,VWS V14.01,2013-04-06 01:20:00,
2013-04-05 18:26:00,53.1,27.5,27.34,ESE,108,2.2,3.1,37,0.00,,SKC,0.04,VWS V14.01,2013-04-06 01:26:00,
2013-04-05 18:31:00,52.9,26.7,27.34,ENE,78,0.0,3.6,36,0.00,,SKC,0.04,VWS V14.01,2013-04-06 01:31:00,
2013-04-05 18:36:00,53.1,26.1,27.34,NE,52,3.1,5.4,35,0.00,,SKC,0.04,VWS V14.01,2013-04-06 01:36:00,
2013-04-05 18:41:00,52.9,26.0,27.34,SE,139,3.1,4.9,35,0.00,,SKC,0.04,VWS V14.01,2013-04-06 01:41:00,
2013-04-05 18:47:00,52.5,25.7,27.34,NE,36,0.0,2.7,35,0.00,,SKC,0.04,VWS V14.01,2013-04-06 01:47:00,
2013-04-05 18:52:00,51.8,23.6,27.34,WSW,247,3.1,6.3,33,0.00,,SKC,0.04,VWS V14.01,2013-04-06 01:52:00,
2013-04-05 18:57:00,51.4,23.3,27.34,North,5,0.0,5.4,33,0.00,,SKC,0.04,VWS V14.01,2013-04-06 01:57:00,
2013-04-05 19:03:00,51.1,23.7,27.34,SW,229,8.3,8.3,34,0.00,,SKC,0.04,VWS V14.01,2013-04-06 02:03:00,
2013-04-05 19:08:00,50.5,24.6,27.34,NE,44,2.2,3.6,36,0.00,,SKC,0.04,VWS V14.01,2013-04-06 02:08:00,
2013-04-05 19:13:00,50.4,24.4,27.34,East,92,0.0,4.9,36,0.00,,SKC,0.04,VWS V14.01,2013-04-06 02:13:00,
2013-04-05 19:18:00,49.5,24.3,27.34,SE,135,0.0,5.8,37,0.00,,SKC,0.04,VWS V14.01,2013-04-06 02:18:00,
2013-04-05 19:23:00,49.5,24.9,27.34,East,94,0.0,4.0,38,0.00,,SKC,0.04,VWS V14.01,2013-04-06 02:23:00,
2013-04-05 19:28:00,49.3,24.8,27.34,North,6,0.0,2.7,38,0.00,,SKC,0.04,VWS V14.01,2013-04-06 02:28:00,
2013-04-05 19:34:00,49.3,24.8,27.34,NE,44,0.0,2.7,38,0.00,,SKC,0.04,VWS V14.01,2013-04-06 02:34:00,
2013-04-05 19:39:00,49.3,24.8,27.34,East,98,0.0,0.0,38,0.00,,SKC,0.04,VWS V14.01,2013-04-06 02:39:00,
2013-04-05 19:44:00,49.3,24.8,27.34,NNW,334,0.0,0.0,38,0.00,,SKC,0.04,VWS V14.01,2013-04-06 02:44:00,
2013-04-05 19:49:00,49.3,24.8,27.32,NE,43,0.0,0.0,38,0.00,,SKC,0.04,VWS V14.01,2013-04-06 02:49:00,
2013-04-05 19:54:00,49.3,24.8,27.32,NNE,20,0.0,0.0,38,0.00,,SKC,0.04,VWS V14.01,2013-04-06 02:54:00,
2013-04-05 19:59:00,47.1,24.1,27.32,NNE,24,0.0,0.0,40,0.00,,SKC,0.04,VWS V14.01,2013-04-06 02:59:00,
2013-04-05 20:05:00,47.1,24.1,27.34,NNE,24,3.1,3.1,40,0.00,,SKC,0.04,VWS V14.01,2013-04-06 03:05:00,
2013-04-05 20:10:00,47.5,24.4,27.34,West,273,0.0,3.1,40,0.00,,SKC,0.04,VWS V14.01,2013-04-06 03:10:00,
2013-04-05 20:15:00,47.5,23.8,27.34,NE,50,0.0,0.0,39,0.00,,SKC,0.04,VWS V14.01,2013-04-06 03:15:00,
2013-04-05 20:20:00,47.3,23.6,27.34,ENE,64,0.0,0.0,39,0.00,,SKC,0.04,VWS V14.01,2013-04-06 03:20:00,
2013-04-05 20:25:00,47.1,23.5,27.34,NNE,17,0.0,0.0,39,0.00,,SKC,0.04,VWS V14.01,2013-04-06 03:25:00,
2013-04-05 20:30:00,46.9,23.9,27.34,NNE,18,0.0,0.0,40,0.00,,SKC,0.04,VWS V14.01,2013-04-06 03:30:00,
2013-04-05 20:35:00,46.6,23.6,27.34,ENE,66,0.0,0.0,40,0.00,,SKC,0.04,VWS V14.01,2013-04-06 03:35:00,
2013-04-05 20:40:00,46.0,23.7,27.34,ENE,65,0.0,0.0,41,0.00,,SKC,0.04,VWS V14.01,2013-04-06 03:40:00,
2013-04-05 20:45:00,45.9,23.5,27.34,NE,56,0.0,0.0,41,0.00,,SKC,0.04,VWS V14.01,2013-04-06 03:45:00,
2013-04-05 20:50:00,45.3,23.6,27.34,NE,55,0.0,0.0,42,0.00,,SKC,0.04,VWS V14.01,2013-04-06 03:50:00,
2013-04-05 20:56:00,45.1,24.0,27.34,ESE,119,0.0,0.0,43,0.00,,SKC,0.04,VWS V14.01,2013-04-06 03:56:00,
2013-04-05 21:00:00,45.0,23.3,27.34,SW,217,0.0,3.1,42,0.00,,SKC,0.04,VWS V14.01,2013-04-06 04:00:00,
2013-04-05 21:01:00,45.1,24.0,27.34,East,94,0.0,0.0,43,0.00,,SKC,0.04,VWS V14.01,2013-04-06 04:01:00,
2013-04-05 21:02:00,45.0,23.8,27.34,ESE,105,0.0,0.0,43,0.00,,SKC,0.04,VWS V14.01,2013-04-06 04:02:00,
2013-04-05 21:07:00,45.0,23.8,27.34,NNE,30,0.0,0.0,43,0.00,,SKC,0.04,VWS V14.01,2013-04-06 04:07:00,
2013-04-05 21:12:00,45.1,23.4,27.34,NE,49,0.0,0.0,42,0.00,,SKC,0.04,VWS V14.01,2013-04-06 04:12:00,
2013-04-05 21:17:00,45.3,23.6,27.34,NE,54,0.0,0.0,42,0.00,,SKC,0.04,VWS V14.01,2013-04-06 04:17:00,
2013-04-05 21:22:00,45.3,23.6,27.34,SSE,155,2.2,3.1,42,0.00,,SKC,0.04,VWS V14.01,2013-04-06 04:22:00,
2013-04-05 21:27:00,45.5,23.8,27.34,SSE,152,3.6,3.6,42,0.00,,SKC,0.04,VWS V14.01,2013-04-06 04:27:00,
2013-04-05 21:32:00,45.5,23.8,27.32,East,97,0.0,4.0,42,0.00,,SKC,0.04,VWS V14.01,2013-04-06 04:32:00,
2013-04-05 21:37:00,45.5,23.8,27.32,East,101,0.0,0.0,42,0.00,,SKC,0.04,VWS V14.01,2013-04-06 04:37:00,
2013-04-05 21:42:00,45.5,23.8,27.32,South,183,0.0,0.0,42,0.00,,SKC,0.04,VWS V14.01,2013-04-06 04:42:00,
2013-04-05 21:47:00,45.5,23.8,27.34,East,86,0.0,3.1,42,0.00,,SKC,0.04,VWS V14.01,2013-04-06 04:47:00,
2013-04-05 21:53:00,45.5,23.8,27.34,ESE,102,0.0,0.0,42,0.00,,SKC,0.04,VWS V14.01,2013-04-06 04:53:00,
2013-04-05 21:58:00,45.3,24.2,27.34,ESE,108,0.0,2.2,43,0.00,,SKC,0.04,VWS V14.01,2013-04-06 04:58:00,
2013-04-05 22:03:00,45.1,24.0,27.34,East,83,0.0,2.7,43,0.00,,SKC,0.04,VWS V14.01,2013-04-06 05:03:00,
2013-04-05 22:09:00,45.0,23.8,27.34,East,89,0.0,3.1,43,0.00,,SKC,0.04,VWS V14.01,2013-04-06 05:09:00,
2013-04-05 22:14:00,45.0,24.4,27.34,North,3,0.0,0.0,44,0.00,,SKC,0.04,VWS V14.01,2013-04-06 05:14:00,
2013-04-05 22:19:00,44.8,24.8,27.34,SE,143,3.6,3.6,45,0.00,,SKC,0.04,VWS V14.01,2013-04-06 05:19:00,
2013-04-05 22:24:00,45.0,24.4,27.34,ENE,76,0.0,2.7,44,0.00,,SKC,0.04,VWS V14.01,2013-04-06 05:24:00,
2013-04-05 22:29:00,45.1,24.5,27.34,NE,45,0.0,2.7,44,0.00,,SKC,0.04,VWS V14.01,2013-04-06 05:29:00,
2013-04-05 22:34:00,45.1,24.5,27.34,NE,43,0.0,0.0,44,0.00,,SKC,0.04,VWS V14.01,2013-04-06 05:34:00,
2013-04-05 22:40:00,45.1,24.5,27.34,North,2,0.0,4.0,44,0.00,,SKC,0.04,VWS V14.01,2013-04-06 05:40:00,
2013-04-05 22:45:00,45.1,24.5,27.34,NE,44,0.0,0.0,44,0.00,,SKC,0.04,VWS V14.01,2013-04-06 05:45:00,
2013-04-05 22:50:00,45.1,24.5,27.34,NE,47,0.0,0.0,44,0.00,,SKC,0.04,VWS V14.01,2013-04-06 05:50:00,
2013-04-05 22:55:00,45.3,24.7,27.34,NNE,30,0.0,0.0,44,0.00,,SKC,0.04,VWS V14.01,2013-04-06 05:55:00,
2013-04-05 23:00:00,45.3,24.7,27.34,NE,38,0.0,0.0,44,0.00,,SKC,0.04,VWS V14.01,2013-04-06 06:00:00,
2013-04-05 23:05:00,45.3,24.7,27.34,NE,48,0.0,0.0,44,0.00,,SKC,0.04,VWS V14.01,2013-04-06 06:05:00,
2013-04-05 23:10:00,45.3,25.2,27.34,NE,36,0.0,0.0,45,0.00,,SKC,0.04,VWS V14.01,2013-04-06 06:10:00,
2013-04-05 23:15:00,45.3,25.2,27.34,North,10,0.0,0.0,45,0.00,,SKC,0.04,VWS V14.01,2013-04-06 06:15:00,
2013-04-05 23:21:00,45.1,25.6,27.34,ENE,74,0.0,0.0,46,0.00,,SKC,0.04,VWS V14.01,2013-04-06 06:21:00,
2013-04-05 23:26:00,45.3,25.8,27.34,NNE,20,0.0,0.0,46,0.00,,SKC,0.04,VWS V14.01,2013-04-06 06:26:00,
2013-04-05 23:31:00,45.1,26.1,27.34,NNE,33,0.0,0.0,47,0.00,,SKC,0.04,VWS V14.01,2013-04-06 06:31:00,
2013-04-05 23:36:00,45.1,26.6,27.34,NE,47,0.0,0.0,48,0.00,,SKC,0.04,VWS V14.01,2013-04-06 06:36:00,
2013-04-05 23:41:00,45.0,27.0,27.34,NE,47,0.0,0.0,49,0.00,,SKC,0.04,VWS V14.01,2013-04-06 06:41:00,
2013-04-05 23:47:00,44.8,26.8,27.34,ENE,69,0.0,0.0,49,0.00,,SKC,0.04,VWS V14.01,2013-04-06 06:47:00,
2013-04-05 23:52:00,44.8,27.3,27.34,NE,38,0.0,0.0,50,0.00,,SKC,0.04,VWS V14.01,2013-04-06 06:52:00,
2013-04-05 23:57:00,44.8,27.3,27.34,ENE,65,0.0,0.0,50,0.00,,SKC,0.04,VWS V14.01,2013-04-06 06:57:00,